Terminal Aerodrome Forecast
Issued by NWS

Home | Current Version | Previous Version | Graphics & Text | Print | Product List | Glossary On
Versions: 1 2 3 4 5 6 7 8 9 10 11 12 13 14 15 16
000
FTUS43 KICT 302336
TAFCNU
TAF
KCNU 302336Z 3100/3124 36008KT P6SM BKN020
     FM310500 01006KT 5SM BR OVC009
     FM311600 02008KT P6SM BKN012 OVC025
     FM312000 02008KT P6SM OVC025=

USA.gov is the U.S. government's official web portal to all federal, state and local government web resources and services.